METAR

ENBN 221750Z 19013KT 9999 VCSH FEW006 SCT022 BKN060 11/08 Q1004

ENMS 221750Z 19006KT 9999 BKN032 10/07 Q1004 RMK WIND 412FT 18005KT

ENNM 221750Z 17009KT 120V210 9999 VCSH FEW008 SCT018 BKN028 10/07 Q1006

ENOL 221750Z 22011KT 9999 FEW013 SCT070 11/09 Q1006 NOSIG

ENST 221750Z 19022KT 9999 VCSH FEW012 SCT018 BKN025 11/08 Q1003 RMK WIND 300FT 18024KT

ENVA 221750Z 11006KT 9999 DZ FEW008 SCT033 BKN048 09/08 Q1008 BECMG NSW RMK WIND 670FT 13006KT



TAF

TAF ENVA 221700Z 2218/2318 12007KT 9999 -RA FEW010 BKN030 PROB40 TEMPO 2218/2220 4000 RA BKN014 BECMG 2311/2313 29018KT TEMPO 2311/2318 SHRA SCT015CB BKN030